sensor_id;sensor_type;location;lat;lon;timestamp;pressure;altitude;pressure_sealevel;temperature;humidity
2036;BME280;23642;42.658;23.350;2023-05-23T00:01:56;44650.25;;;-146.31;100.00
2036;BME280;23642;42.658;23.350;2023-05-23T00:04:24;44590.56;;;-146.31;100.00
2036;BME280;23642;42.658;23.350;2023-05-23T00:06:53;44510.25;;;-146.31;100.00
2036;BME280;23642;42.658;23.350;2023-05-23T00:09:20;44495.84;;;-146.31;100.00
2036;BME280;23642;42.658;23.350;2023-05-23T00:11:48;44411.44;;;-146.31;100.00
2036;BME280;23642;42.658;23.350;2023-05-23T00:14:15;44357.91;;;-146.31;100.00
2036;BME280;23642;42.658;23.350;2023-05-23T00:16:44;44333.22;;;-146.31;100.00
2036;BME280;23642;42.658;23.350;2023-05-23T00:19:16;44263.22;;;-146.31;100.00
2036;BME280;23642;42.658;23.350;2023-05-23T00:21:45;44205.56;;;-146.31;100.00
2036;BME280;23642;42.658;23.350;2023-05-23T00:24:17;44123.25;;;-146.31;100.00
2036;BME280;23642;42.658;23.350;2023-05-23T00:26:48;44069.72;;;-146.31;100.00
2036;BME280;23642;42.658;23.350;2023-05-23T00:29:19;44090.31;;;-146.31;100.00
2036;BME280;23642;42.658;23.350;2023-05-23T00:31:50;44065.59;;;-146.31;100.00
2036;BME280;23642;42.658;23.350;2023-05-23T00:34:17;44038.84;;;-146.31;100.00
2036;BME280;23642;42.658;23.350;2023-05-23T00:36:46;43952.38;;;-146.31;100.00
2036;BME280;23642;42.658;23.350;2023-05-23T00:39:14;43940.03;;;-146.31;100.00
2036;BME280;23642;42.658;23.350;2023-05-23T00:41:44;43907.09;;;-146.31;100.00
2036;BME280;23642;42.658;23.350;2023-05-23T00:44:15;43890.63;;;-146.31;100.00
2036;BME280;23642;42.658;23.350;2023-05-23T00:46:42;43826.81;;;-146.31;100.00
2036;BME280;23642;42.658;23.350;2023-05-23T00:49:13;43812.41;;;-146.31;100.00
2036;BME280;23642;42.658;23.350;2023-05-23T00:51:42;43748.59;;;-146.31;100.00
2036;BME280;23642;42.658;23.350;2023-05-23T00:54:14;43686.84;;;-146.31;100.00
2036;BME280;23642;42.658;23.350;2023-05-23T00:56:42;43719.78;;;-146.31;100.00
2036;BME280;23642;42.658;23.350;2023-05-23T00:59:09;43662.16;;;-146.31;100.00
2036;BME280;23642;42.658;23.350;2023-05-23T01:01:37;43655.97;;;-146.31;100.00
2036;BME280;23642;42.658;23.350;2023-05-23T01:04:05;43614.81;;;-146.31;100.00
2036;BME280;23642;42.658;23.350;2023-05-23T01:06:34;43586.00;;;-146.31;100.00
2036;BME280;23642;42.658;23.350;2023-05-23T01:09:01;43538.66;;;-146.31;100.00
2036;BME280;23642;42.658;23.350;2023-05-23T01:11:34;43516.03;;;-146.31;100.00
2036;BME280;23642;42.658;23.350;2023-05-23T01:14:08;43623.06;;;-146.31;100.00
2036;BME280;23642;42.658;23.350;2023-05-23T01:16:49;43668.34;;;-146.31;100.00
2036;BME280;23642;42.658;23.350;2023-05-23T01:19:39;43649.81;;;-146.31;100.00
2036;BME280;23642;42.658;23.350;2023-05-23T01:22:19;43670.38;;;-146.31;100.00
2036;BME280;23642;42.658;23.350;2023-05-23T01:24:53;43637.47;;;-146.31;100.00
2036;BME280;23642;42.658;23.350;2023-05-23T01:27:25;43583.94;;;-146.31;100.00
2036;BME280;23642;42.658;23.350;2023-05-23T01:29:59;43536.59;;;-146.31;100.00
2036;BME280;23642;42.658;23.350;2023-05-23T01:32:27;43474.88;;;-146.31;100.00
2036;BME280;23642;42.658;23.350;2023-05-23T01:34:55;43468.69;;;-146.31;100.00
2036;BME280;23642;42.658;23.350;2023-05-23T01:37:22;43400.78;;;-146.31;100.00
2036;BME280;23642;42.658;23.350;2023-05-23T01:39:49;43357.53;;;-146.31;100.00
2036;BME280;23642;42.658;23.350;2023-05-23T01:42:17;43328.75;;;-146.31;100.00
2036;BME280;23642;42.658;23.350;2023-05-23T01:44:46;43369.91;;;-146.31;100.00
2036;BME280;23642;42.658;23.350;2023-05-23T01:47:21;43378.13;;;-146.31;100.00
2036;BME280;23642;42.658;23.350;2023-05-23T01:49:48;43349.31;;;-146.31;100.00
2036;BME280;23642;42.658;23.350;2023-05-23T01:52:19;43347.25;;;-146.31;100.00
2036;BME280;23642;42.658;23.350;2023-05-23T01:54:46;43273.16;;;-146.31;100.00
2036;BME280;23642;42.658;23.350;2023-05-23T01:57:14;43332.84;;;-146.31;100.00
2036;BME280;23642;42.658;23.350;2023-05-23T01:59:43;43320.50;;;-146.31;100.00
2036;BME280;23642;42.658;23.350;2023-05-23T02:02:10;43343.16;;;-146.31;100.00
2036;BME280;23642;42.658;23.350;2023-05-23T02:04:38;43334.91;;;-146.31;100.00
2036;BME280;23642;42.658;23.350;2023-05-23T02:07:05;43332.84;;;-146.31;100.00
2036;BME280;23642;42.658;23.350;2023-05-23T02:09:32;43304.03;;;-146.31;100.00
2036;BME280;23642;42.658;23.350;2023-05-23T02:11:59;43310.22;;;-146.31;100.00
2036;BME280;23642;42.658;23.350;2023-05-23T02:14:26;43254.66;;;-146.31;100.00
2036;BME280;23642;42.658;23.350;2023-05-23T02:16:53;43234.06;;;-146.31;100.00
2036;BME280;23642;42.658;23.350;2023-05-23T02:19:19;43143.50;;;-146.31;100.00
2036;BME280;23642;42.658;23.350;2023-05-23T02:21:48;43116.75;;;-146.31;100.00
2036;BME280;23642;42.658;23.350;2023-05-23T02:24:14;43098.25;;;-146.31;100.00
2036;BME280;23642;42.658;23.350;2023-05-23T02:26:41;43040.63;;;-146.31;100.00
2036;BME280;23642;42.658;23.350;2023-05-23T02:29:08;43026.22;;;-146.31;100.00
2036;BME280;23642;42.658;23.350;2023-05-23T02:31:35;42960.38;;;-146.31;100.00
2036;BME280;23642;42.658;23.350;2023-05-23T02:34:02;42987.13;;;-146.31;100.00
2036;BME280;23642;42.658;23.350;2023-05-23T02:36:29;42925.38;;;-146.31;100.00
2036;BME280;23642;42.658;23.350;2023-05-23T02:38:59;42892.47;;;-146.31;100.00
2036;BME280;23642;42.658;23.350;2023-05-23T02:41:26;42849.25;;;-146.31;100.00
2036;BME280;23642;42.658;23.350;2023-05-23T02:43:55;42847.19;;;-146.31;100.00
2036;BME280;23642;42.658;23.350;2023-05-23T02:46:22;42785.47;;;-146.31;100.00
2036;BME280;23642;42.658;23.350;2023-05-23T02:48:49;42666.09;;;-146.31;100.00
2036;BME280;23642;42.658;23.350;2023-05-23T02:51:18;42649.66;;;-146.31;100.00
2036;BME280;23642;42.658;23.350;2023-05-23T02:53:45;42509.72;;;-146.31;100.00
2036;BME280;23642;42.658;23.350;2023-05-23T02:56:14;42468.59;;;-146.31;100.00
2036;BME280;23642;42.658;23.350;2023-05-23T02:58:40;42406.84;;;-146.31;100.00
2036;BME280;23642;42.658;23.350;2023-05-23T03:01:07;42359.53;;;-146.31;100.00
2036;BME280;23642;42.658;23.350;2023-05-23T03:03:34;42343.06;;;-146.31;100.00
2036;BME280;23642;42.658;23.350;2023-05-23T03:06:01;42326.63;;;-146.31;100.00
2036;BME280;23642;42.658;23.350;2023-05-23T03:08:29;42266.94;;;-146.31;100.00
2036;BME280;23642;42.658;23.350;2023-05-23T03:10:56;42223.75;;;-146.31;100.00
2036;BME280;23642;42.658;23.350;2023-05-23T03:13:24;42190.81;;;-146.31;100.00
2036;BME280;23642;42.658;23.350;2023-05-23T03:15:51;42120.88;;;-146.31;100.00
2036;BME280;23642;42.658;23.350;2023-05-23T03:18:18;42120.88;;;-146.31;100.00
2036;BME280;23642;42.658;23.350;2023-05-23T03:20:46;42059.16;;;-146.31;100.00
2036;BME280;23642;42.658;23.350;2023-05-23T03:23:13;42030.34;;;-146.31;100.00
2036;BME280;23642;42.658;23.350;2023-05-23T03:25:41;42007.72;;;-146.31;100.00
2036;BME280;23642;42.658;23.350;2023-05-23T03:28:09;41937.78;;;-146.31;100.00
2036;BME280;23642;42.658;23.350;2023-05-23T03:30:38;41874.00;;;-146.31;100.00
2036;BME280;23642;42.658;23.350;2023-05-23T03:33:04;41789.66;;;-146.31;100.00
2036;BME280;23642;42.658;23.350;2023-05-23T03:35:32;41727.97;;;-146.31;100.00
2036;BME280;23642;42.658;23.350;2023-05-23T03:38:00;41649.78;;;-146.31;100.00
2036;BME280;23642;42.658;23.350;2023-05-23T03:40:27;41577.78;;;-146.31;100.00
2036;BME280;23642;42.658;23.350;2023-05-23T03:43:02;41468.78;;;-146.31;100.00
2036;BME280;23642;42.658;23.350;2023-05-23T03:45:29;41452.31;;;-146.31;100.00
2036;BME280;23642;42.658;23.350;2023-05-23T03:48:02;41400.91;;;-146.31;100.00
2036;BME280;23642;42.658;23.350;2023-05-23T03:50:29;41330.97;;;-146.31;100.00
2036;BME280;23642;42.658;23.350;2023-05-23T03:52:55;41291.88;;;-146.31;100.00
2036;BME280;23642;42.658;23.350;2023-05-23T03:55:23;41246.63;;;-146.31;100.00
2036;BME280;23642;42.658;23.350;2023-05-23T03:57:50;41271.31;;;-146.31;100.00
2036;BME280;23642;42.658;23.350;2023-05-23T04:00:17;41184.94;;;-146.31;100.00
2036;BME280;23642;42.658;23.350;2023-05-23T04:02:46;41117.06;;;-146.31;100.00
2036;BME280;23642;42.658;23.350;2023-05-23T04:05:16;41012.16;;;-146.31;100.00
2036;BME280;23642;42.658;23.350;2023-05-23T04:07:44;41115.00;;;-146.31;100.00
2036;BME280;23642;42.658;23.350;2023-05-23T04:10:11;41121.19;;;-146.31;100.00
2036;BME280;23642;42.658;23.350;2023-05-23T04:12:38;41178.75;;;-146.31;100.00
2036;BME280;23642;42.658;23.350;2023-05-23T04:15:06;41213.72;;;-146.31;100.00
2036;BME280;23642;42.658;23.350;2023-05-23T04:17:35;41258.97;;;-146.31;100.00
2036;BME280;23642;42.658;23.350;2023-05-23T04:20:05;41291.88;;;-146.31;100.00
2036;BME280;23642;42.658;23.350;2023-05-23T04:22:33;41400.91;;;-146.31;100.00
2036;BME280;23642;42.658;23.350;2023-05-23T04:25:00;41398.84;;;-146.31;100.00
2036;BME280;23642;42.658;23.350;2023-05-23T04:27:27;41546.94;;;-146.31;100.00
2036;BME280;23642;42.658;23.350;2023-05-23T04:29:55;41649.78;;;-146.31;100.00
2036;BME280;23642;42.658;23.350;2023-05-23T04:32:22;41678.59;;;-146.31;100.00
2036;BME280;23642;42.658;23.350;2023-05-23T04:34:51;41699.16;;;-146.31;100.00
2036;BME280;23642;42.658;23.350;2023-05-23T04:37:19;41954.25;;;-146.31;100.00
2036;BME280;23642;42.658;23.350;2023-05-23T04:39:51;42133.22;;;-146.31;100.00
2036;BME280;23642;42.658;23.350;2023-05-23T04:42:18;42766.94;;;-146.31;100.00
2036;BME280;23642;42.658;23.350;2023-05-23T04:44:50;43209.38;;;-146.31;100.00
2036;BME280;23642;42.658;23.350;2023-05-23T04:47:18;43933.84;;;-146.31;100.00
2036;BME280;23642;42.658;23.350;2023-05-23T04:49:45;44689.38;;;-146.31;100.00
2036;BME280;23642;42.658;23.350;2023-05-23T04:52:14;45502.75;;;-146.31;100.00
2036;BME280;23642;42.658;23.350;2023-05-23T04:54:44;46227.72;;;-146.31;100.00
2036;BME280;23642;42.658;23.350;2023-05-23T04:57:14;46627.34;;;-146.31;100.00
2036;BME280;23642;42.658;23.350;2023-05-23T04:59:41;46676.78;;;-146.31;100.00
2036;BME280;23642;42.658;23.350;2023-05-23T05:02:08;46903.41;;;-146.31;100.00
2036;BME280;23642;42.658;23.350;2023-05-23T05:04:39;47187.72;;;-146.31;100.00
2036;BME280;23642;42.658;23.350;2023-05-23T05:07:08;47327.84;;;-146.31;100.00
2036;BME280;23642;42.658;23.350;2023-05-23T05:09:35;47336.09;;;-146.31;100.00
2036;BME280;23642;42.658;23.350;2023-05-23T05:12:03;47451.47;;;-146.31;100.00
2036;BME280;23642;42.658;23.350;2023-05-23T05:14:34;47509.16;;;-146.31;100.00
2036;BME280;23642;42.658;23.350;2023-05-23T05:17:03;47550.38;;;-146.31;100.00
2036;BME280;23642;42.658;23.350;2023-05-23T05:19:30;47595.72;;;-146.31;100.00
2036;BME280;23642;42.658;23.350;2023-05-23T05:21:57;47624.56;;;-146.31;100.00
2036;BME280;23642;42.658;23.350;2023-05-23T05:24:26;47735.84;;;-146.31;100.00
2036;BME280;23642;42.658;23.350;2023-05-23T05:26:53;47735.84;;;-146.31;100.00
2036;BME280;23642;42.658;23.350;2023-05-23T05:29:23;47719.34;;;-146.31;99.94
2036;BME280;23642;42.658;23.350;2023-05-23T05:31:52;47717.28;;;-146.31;99.93
2036;BME280;23642;42.658;23.350;2023-05-23T05:34:19;47735.84;;;-146.31;99.83
2036;BME280;23642;42.658;23.350;2023-05-23T05:36:49;47801.78;;;-146.31;99.32
2036;BME280;23642;42.658;23.350;2023-05-23T05:39:23;47795.59;;;-146.31;99.53
2036;BME280;23642;42.658;23.350;2023-05-23T05:41:50;47884.22;;;-146.31;98.83
2036;BME280;23642;42.658;23.350;2023-05-23T05:44:17;47855.38;;;-146.31;99.14
2036;BME280;23642;42.658;23.350;2023-05-23T05:46:44;47908.94;;;-146.31;97.77
2036;BME280;23642;42.658;23.350;2023-05-23T05:49:14;47972.84;;;-146.31;97.24
2036;BME280;23642;42.658;23.350;2023-05-23T05:51:41;48069.69;;;-146.31;95.49
2036;BME280;23642;42.658;23.350;2023-05-23T05:54:09;48152.13;;;-146.31;96.60
2036;BME280;23642;42.658;23.350;2023-05-23T05:56:39;48119.16;;;-146.31;96.67
2036;BME280;23642;42.658;23.350;2023-05-23T05:59:08;48137.72;;;-146.31;93.99
2036;BME280;23642;42.658;23.350;2023-05-23T06:01:38;48292.28;;;-146.31;90.88
2036;BME280;23642;42.658;23.350;2023-05-23T06:04:05;48582.91;;;-146.31;87.68
2036;BME280;23642;42.658;23.350;2023-05-23T06:06:37;48741.63;;;-146.31;89.95
2036;BME280;23642;42.658;23.350;2023-05-23T06:09:06;48694.22;;;-146.31;91.12
2036;BME280;23642;42.658;23.350;2023-05-23T06:11:39;48708.66;;;-146.31;89.99
2036;BME280;23642;42.658;23.350;2023-05-23T06:17:10;48778.75;;;-146.31;88.85
2036;BME280;23642;42.658;23.350;2023-05-23T06:19:57;48869.44;;;-146.31;89.39
2036;BME280;23642;42.658;23.350;2023-05-23T06:22:33;48803.47;;;-146.31;88.01
2036;BME280;23642;42.658;23.350;2023-05-23T06:25:09;48890.06;;;-146.31;86.97
2036;BME280;23642;42.658;23.350;2023-05-23T06:27:50;48923.03;;;-146.31;84.21
2036;BME280;23642;42.658;23.350;2023-05-23T06:30:17;49057.03;;;-146.31;83.42
2036;BME280;23642;42.658;23.350;2023-05-23T06:32:45;49135.38;;;-146.31;84.32
2036;BME280;23642;42.658;23.350;2023-05-23T06:35:12;49193.09;;;-146.31;86.39
2036;BME280;23642;42.658;23.350;2023-05-23T06:37:47;49106.50;;;-146.31;91.19
2036;BME280;23642;42.658;23.350;2023-05-23T06:40:15;49061.16;;;-146.31;90.39
2036;BME280;23642;42.658;23.350;2023-05-23T06:45:48;49164.25;;;-146.31;92.58
2036;BME280;23642;42.658;23.350;2023-05-23T06:48:15;49081.78;;;-146.31;93.64
2036;BME280;23642;42.658;23.350;2023-05-23T06:50:49;49081.78;;;-146.31;93.61
2036;BME280;23642;42.658;23.350;2023-05-23T06:53:55;49067.34;;;-146.31;93.95
2036;BME280;23642;42.658;23.350;2023-05-23T06:56:42;49022.00;;;-146.31;93.79
2036;BME280;23642;42.658;23.350;2023-05-23T06:59:24;49030.22;;;-146.31;93.42
2036;BME280;23642;42.658;23.350;2023-05-23T07:01:53;48972.50;;;-146.31;92.04
2036;BME280;23642;42.658;23.350;2023-05-23T07:04:43;48999.31;;;-146.31;88.87
2036;BME280;23642;42.658;23.350;2023-05-23T07:07:34;49061.16;;;-146.31;88.03
2036;BME280;23642;42.658;23.350;2023-05-23T07:27:00;49203.41;;;-146.31;84.98
2036;BME280;23642;42.658;23.350;2023-05-23T07:29:42;49168.34;;;-146.31;86.22
2036;BME280;23642;42.658;23.350;2023-05-23T07:32:17;49269.38;;;-146.31;84.12
2036;BME280;23642;42.658;23.350;2023-05-23T07:34:49;49224.03;;;-146.31;84.56
2036;BME280;23642;42.658;23.350;2023-05-23T07:37:29;49211.66;;;-146.31;84.23
2036;BME280;23642;42.658;23.350;2023-05-23T07:40:17;49184.84;;;-146.31;83.52
2036;BME280;23642;42.658;23.350;2023-05-23T07:42:48;49250.81;;;-146.31;84.30
2036;BME280;23642;42.658;23.350;2023-05-23T07:45:23;49269.38;;;-146.31;85.21
2036;BME280;23642;42.658;23.350;2023-05-23T07:51:39;49269.38;;;-146.31;84.45
2036;BME280;23642;42.658;23.350;2023-05-23T08:01:29;49224.03;;;-146.31;82.45
2036;BME280;23642;42.658;23.350;2023-05-23T08:04:22;49298.25;;;-146.31;81.78
2036;BME280;23642;42.658;23.350;2023-05-23T08:07:05;49285.88;;;-146.31;82.35
2036;BME280;23642;42.658;23.350;2023-05-23T08:09:34;49275.56;;;-146.31;82.20
2036;BME280;23642;42.658;23.350;2023-05-23T08:15:39;49277.63;;;-146.31;82.69
2036;BME280;23642;42.658;23.350;2023-05-23T08:18:31;49312.69;;;-146.31;82.53
2036;BME280;23642;42.658;23.350;2023-05-23T08:24:13;49380.72;;;-146.31;82.14
2036;BME280;23642;42.658;23.350;2023-05-23T08:26:51;49353.91;;;-146.31;82.34
2036;BME280;23642;42.658;23.350;2023-05-23T08:29:25;49273.50;;;-146.31;81.76
2036;BME280;23642;42.658;23.350;2023-05-23T08:32:13;49339.47;;;-146.31;81.75
2036;BME280;23642;42.658;23.350;2023-05-23T08:35:09;49384.84;;;-146.31;80.00
2036;BME280;23642;42.658;23.350;2023-05-23T08:38:34;49469.38;;;-146.31;80.68
2036;BME280;23642;42.658;23.350;2023-05-23T08:44:26;49405.44;;;-146.31;79.65
2036;BME280;23642;42.658;23.350;2023-05-23T08:46:58;49525.03;;;-146.31;74.30
2036;BME280;23642;42.658;23.350;2023-05-23T08:49:30;49537.41;;;-146.31;75.37
2036;BME280;23642;42.658;23.350;2023-05-23T08:55:13;49386.91;;;-146.31;77.05
2036;BME280;23642;42.658;23.350;2023-05-23T09:01:01;49500.28;;;-146.31;77.28
2036;BME280;23642;42.658;23.350;2023-05-23T09:03:51;49607.50;;;-146.31;75.15
2036;BME280;23642;42.658;23.350;2023-05-23T09:06:30;49636.38;;;-146.31;75.77
2036;BME280;23642;42.658;23.350;2023-05-23T09:09:18;49714.72;;;-146.31;75.65
2036;BME280;23642;42.658;23.350;2023-05-23T09:12:36;49570.41;;;-146.31;76.75
2036;BME280;23642;42.658;23.350;2023-05-23T09:18:26;49780.72;;;-146.31;68.46
2036;BME280;23642;42.658;23.350;2023-05-23T09:20:57;49834.31;;;-146.31;68.84
2036;BME280;23642;42.658;23.350;2023-05-23T09:23:37;49923.00;;;-146.31;66.50
2036;BME280;23642;42.658;23.350;2023-05-23T09:26:09;50100.34;;;-146.31;58.46
2036;BME280;23642;42.658;23.350;2023-05-23T09:29:03;50205.50;;;-146.31;56.46
2036;BME280;23642;42.658;23.350;2023-05-23T09:31:47;50329.25;;;-146.31;54.66
2036;BME280;23642;42.658;23.350;2023-05-23T09:34:17;50473.63;;;-146.31;53.71
2036;BME280;23642;42.658;23.350;2023-05-23T09:36:58;50471.56;;;-146.31;54.94
2036;BME280;23642;42.658;23.350;2023-05-23T09:39:27;50516.94;;;-146.31;53.48
2036;BME280;23642;42.658;23.350;2023-05-23T09:41:54;51011.94;;;-146.31;49.35
2036;BME280;23642;42.658;23.350;2023-05-23T09:44:27;51044.94;;;-146.31;51.02
2036;BME280;23642;42.658;23.350;2023-05-23T09:46:57;51067.63;;;-146.31;50.96
2036;BME280;23642;42.658;23.350;2023-05-23T09:49:25;50997.50;;;-146.31;53.81
2036;BME280;23642;42.658;23.350;2023-05-23T09:52:27;51451.34;;;-146.31;48.22
2036;BME280;23642;42.658;23.350;2023-05-23T09:55:06;51346.13;;;-146.31;50.41
2036;BME280;23642;42.658;23.350;2023-05-23T09:57:52;51346.13;;;-146.31;51.36
2036;BME280;23642;42.658;23.350;2023-05-23T10:00:28;51397.69;;;-146.31;51.33
2036;BME280;23642;42.658;23.350;2023-05-23T10:03:12;51377.06;;;-146.31;50.11
2036;BME280;23642;42.658;23.350;2023-05-23T10:05:44;51486.41;;;-146.31;50.56
2036;BME280;23642;42.658;23.350;2023-05-23T10:08:18;51500.84;;;-146.31;48.82
2036;BME280;23642;42.658;23.350;2023-05-23T10:11:40;51703.03;;;-146.31;47.97
2036;BME280;23642;42.658;23.350;2023-05-23T10:14:29;51884.59;;;-146.31;44.93
2036;BME280;23642;42.658;23.350;2023-05-23T10:17:04;52177.59;;;-146.31;43.23
2036;BME280;23642;42.658;23.350;2023-05-23T10:20:02;52231.25;;;-146.31;46.14
2036;BME280;23642;42.658;23.350;2023-05-23T10:22:43;52272.50;;;-146.31;46.19
2036;BME280;23642;42.658;23.350;2023-05-23T10:25:42;52398.41;;;-146.31;45.88
2036;BME280;23642;42.658;23.350;2023-05-23T10:28:16;52398.41;;;-146.31;45.96
2036;BME280;23642;42.658;23.350;2023-05-23T10:37:48;52416.97;;;-146.31;45.31
2036;BME280;23642;42.658;23.350;2023-05-23T10:40:49;52346.81;;;-146.31;45.79
2036;BME280;23642;42.658;23.350;2023-05-23T10:43:30;52439.66;;;-146.31;43.92
2036;BME280;23642;42.658;23.350;2023-05-23T10:46:07;52503.63;;;-146.31;42.93
2036;BME280;23642;42.658;23.350;2023-05-23T10:48:40;52408.72;;;-146.31;44.76
2036;BME280;23642;42.658;23.350;2023-05-23T10:51:14;52503.63;;;-146.31;43.51
2036;BME280;23642;42.658;23.350;2023-05-23T10:54:22;52505.69;;;-146.31;43.32
2036;BME280;23642;42.658;23.350;2023-05-23T10:57:02;52718.25;;;-146.31;42.55
2036;BME280;23642;42.658;23.350;2023-05-23T10:59:29;52652.22;;;-146.31;42.76
2036;BME280;23642;42.658;23.350;2023-05-23T11:01:59;52734.78;;;-146.31;42.17
2036;BME280;23642;42.658;23.350;2023-05-23T11:04:29;52734.78;;;-146.31;42.81
2036;BME280;23642;42.658;23.350;2023-05-23T11:06:57;52778.13;;;-146.31;41.39
2036;BME280;23642;42.658;23.350;2023-05-23T11:10:07;52817.31;;;-146.31;41.81
2036;BME280;23642;42.658;23.350;2023-05-23T11:12:52;52844.16;;;-146.31;41.28
2036;BME280;23642;42.658;23.350;2023-05-23T11:15:48;53056.75;;;-146.31;39.85
2036;BME280;23642;42.658;23.350;2023-05-23T11:18:55;53048.47;;;-146.31;41.13
2036;BME280;23642;42.658;23.350;2023-05-23T11:21:28;52885.44;;;-146.31;42.16
2036;BME280;23642;42.658;23.350;2023-05-23T11:24:10;52920.53;;;-146.31;40.95
2036;BME280;23642;42.658;23.350;2023-05-23T11:26:54;52990.69;;;-146.31;40.59
2036;BME280;23642;42.658;23.350;2023-05-23T11:31:08;52906.06;;;-146.31;41.84
2036;BME280;23642;42.658;23.350;2023-05-23T11:33:44;52922.59;;;-146.31;40.85
2036;BME280;23642;42.658;23.350;2023-05-23T11:36:33;53102.16;;;-146.31;39.38
2036;BME280;23642;42.658;23.350;2023-05-23T11:39:13;53019.59;;;-146.31;40.33
2036;BME280;23642;42.658;23.350;2023-05-23T11:41:44;53323.00;;;-146.31;39.34
2036;BME280;23642;42.658;23.350;2023-05-23T11:44:42;53213.59;;;-146.31;40.04
2036;BME280;23642;42.658;23.350;2023-05-23T11:47:31;53259.03;;;-146.31;39.94
2036;BME280;23642;42.658;23.350;2023-05-23T11:53:46;53019.59;;;-146.31;39.74
2036;BME280;23642;42.658;23.350;2023-05-23T11:56:20;53085.63;;;-146.31;38.89
2036;BME280;23642;42.658;23.350;2023-05-23T11:59:03;53116.59;;;-146.31;39.73
2036;BME280;23642;42.658;23.350;2023-05-23T12:02:10;53091.81;;;-146.31;39.26
2036;BME280;23642;42.658;23.350;2023-05-23T12:08:20;53089.75;;;-146.31;39.25
2036;BME280;23642;42.658;23.350;2023-05-23T12:11:02;53186.78;;;-146.31;37.22
2036;BME280;23642;42.658;23.350;2023-05-23T12:13:36;53444.78;;;-146.31;36.90
2036;BME280;23642;42.658;23.350;2023-05-23T12:19:38;53287.91;;;-146.31;38.65
2036;BME280;23642;42.658;23.350;2023-05-23T12:22:54;53269.34;;;-146.31;38.74
2036;BME280;23642;42.658;23.350;2023-05-23T12:25:54;53201.22;;;-146.31;38.53
2036;BME280;23642;42.658;23.350;2023-05-23T12:28:42;53461.31;;;-146.31;38.63
2036;BME280;23642;42.658;23.350;2023-05-23T12:31:34;53292.03;;;-146.31;38.97
2036;BME280;23642;42.658;23.350;2023-05-23T12:34:29;53426.22;;;-146.31;38.54
2036;BME280;23642;42.658;23.350;2023-05-23T12:40:49;53312.69;;;-146.31;37.89
2036;BME280;23642;42.658;23.350;2023-05-23T12:48:06;53341.59;;;-146.31;37.92
2036;BME280;23642;42.658;23.350;2023-05-23T12:51:19;53269.34;;;-146.31;37.14
2036;BME280;23642;42.658;23.350;2023-05-23T12:54:16;53294.09;;;-146.31;37.54
2036;BME280;23642;42.658;23.350;2023-05-23T12:57:35;53444.78;;;-146.31;36.98
2036;BME280;23642;42.658;23.350;2023-05-23T13:00:24;53630.56;;;-146.31;34.47
2036;BME280;23642;42.658;23.350;2023-05-23T13:03:07;53735.88;;;-146.31;33.61
2036;BME280;23642;42.658;23.350;2023-05-23T13:06:12;53806.06;;;-146.31;34.05
2036;BME280;23642;42.658;23.350;2023-05-23T13:09:43;53709.03;;;-146.31;34.24
2036;BME280;23642;42.658;23.350;2023-05-23T13:16:33;54088.88;;;-146.31;31.27
2036;BME280;23642;42.658;23.350;2023-05-23T13:19:42;54119.88;;;-146.31;31.29
2036;BME280;23642;42.658;23.350;2023-05-23T13:30:09;53973.28;;;-146.31;31.84
2036;BME280;23642;42.658;23.350;2023-05-23T13:32:30;53808.13;;;-146.31;32.32
2036;BME280;23642;42.658;23.350;2023-05-23T13:35:16;53663.59;;;-146.31;32.23
2036;BME280;23642;42.658;23.350;2023-05-23T13:37:53;53954.69;;;-146.31;32.05
2036;BME280;23642;42.658;23.350;2023-05-23T13:40:42;53872.13;;;-146.31;33.56
2036;BME280;23642;42.658;23.350;2023-05-23T13:43:13;53960.88;;;-146.31;32.69
2036;BME280;23642;42.658;23.350;2023-05-23T13:45:59;54099.22;;;-146.31;31.05
2036;BME280;23642;42.658;23.350;2023-05-23T13:48:47;54225.16;;;-146.31;31.40
2036;BME280;23642;42.658;23.350;2023-05-23T13:52:01;54029.03;;;-146.31;31.12
2036;BME280;23642;42.658;23.350;2023-05-23T13:54:47;54144.63;;;-146.31;29.27
2036;BME280;23642;42.658;23.350;2023-05-23T13:57:17;54060.00;;;-146.31;29.30
2036;BME280;23642;42.658;23.350;2023-05-23T14:02:59;53896.88;;;-146.31;30.90
2036;BME280;23642;42.658;23.350;2023-05-23T14:05:41;53979.47;;;-146.31;31.03
2036;BME280;23642;42.658;23.350;2023-05-23T14:08:44;54024.88;;;-146.31;31.77
2036;BME280;23642;42.658;23.350;2023-05-23T14:11:23;54053.78;;;-146.31;31.27
2036;BME280;23642;42.658;23.350;2023-05-23T14:14:16;54148.78;;;-146.31;31.52
2036;BME280;23642;42.658;23.350;2023-05-23T14:23:43;54297.44;;;-146.31;30.29
2036;BME280;23642;42.658;23.350;2023-05-23T14:29:40;54221.03;;;-146.31;29.89
2036;BME280;23642;42.658;23.350;2023-05-23T14:32:23;54285.03;;;-146.31;30.33
2036;BME280;23642;42.658;23.350;2023-05-23T14:35:28;54216.91;;;-146.31;29.32
2036;BME280;23642;42.658;23.350;2023-05-23T14:38:32;54119.88;;;-146.31;28.17
2036;BME280;23642;42.658;23.350;2023-05-23T14:41:28;53690.44;;;-146.31;29.93
2036;BME280;23642;42.658;23.350;2023-05-23T14:44:53;54117.78;;;-146.31;26.44
2036;BME280;23642;42.658;23.350;2023-05-23T14:47:40;54196.25;;;-146.31;26.74
2036;BME280;23642;42.658;23.350;2023-05-23T14:50:09;54357.31;;;-146.31;27.15
2036;BME280;23642;42.658;23.350;2023-05-23T14:52:41;54169.41;;;-146.31;26.16
2036;BME280;23642;42.658;23.350;2023-05-23T14:55:49;54266.44;;;-146.31;26.29
2036;BME280;23642;42.658;23.350;2023-05-23T14:58:27;54138.44;;;-146.31;25.73
2036;BME280;23642;42.658;23.350;2023-05-23T15:01:19;54051.72;;;-146.31;25.73
2036;BME280;23642;42.658;23.350;2023-05-23T15:04:02;54334.59;;;-146.31;26.35
2036;BME280;23642;42.658;23.350;2023-05-23T15:06:54;54270.59;;;-146.31;26.21
2036;BME280;23642;42.658;23.350;2023-05-23T15:12:44;54237.53;;;-146.31;25.42